Harp Township, Illinois
Current Conditions -  °F | °C
As of 1:15 PM on Friday 21 Nov 2014 (Local Time) from KAAA Reporting Station
Clear Clear  
Wind Chill: 29°   Ceiling: Unl
Heat Index: 37°   Visibility: 10mi
Dew Point: 11°   Wind: 10mph
Humidity: 35%   Direction: 160°SSE
Pressure: 30.38"   Gusts: 16mph
Location:  40.143°N, 88.9637°W
Report Text: KAAA 211915Z AUTO 16009G14KT 10SM CLR 03/M12 A3038 RMK AO2 T00251116
Loading
Personal Weather Stations






























Interactive Weather Map New forecast layout! Learn more

10-Day Weather Forecast

Advertisements
Track Severe Weather on mobile